Terminal Aerodrome Forecast
Issued by NWS

Home | Current Version | Previous Version | Text Only | Print | Product List | Glossary On
Versions: 1 2 3 4 5 6 7 8 9 10 11 12 13 14
000
FTUS43 KICT 011300 AAA
TAFCNU
TAF AMD
KCNU 011338Z 0114/0212 18011KT P6SM VCTS BKN060CB
      TEMPO 0114/0116 -TSRA
     FM011700 18015G22KT P6SM BKN060
     FM020300 17010KT P6SM VCTS BKN060CB
     FM020600 17010KT P6SM -SHRA VCTS SCT025CB BKN060=

USA.gov is the U.S. government's official web portal to all federal, state and local government web resources and services.